Main page
METAR-TAF:

METAR-TAF

Airports :

Melilla, Spain

Melilla Airport

latitude: 35-17N, longitude: 002-57W, elevation: 47 m

Current weather observation

The report was made 19 minutes ago, at 03:30 UTC
Wind 3 kt from the West/Southwest
Temperature 18°C
Humidity 77%
Pressure 1019 hPa
Visibility 10 km or more

METAR: GEML 200330Z AUTO 25003KT 9999 NCD 18/14 Q1019

Time: 05:49 (03:49 UTC)

Forecast

The report was made 1 hour and 49 minutes ago, at 02:00 UTC
Forecast valid from 20 at 03 UTC to 21 at 03 UTC
Wind 6 kt from the East
Visibility 10 km or more
Scattered clouds at a height of 2000 ft
Temporary
from 20 at 03 UTC to 20 at 11 UTC
Scattered clouds at a height of 800 ft
Broken clouds at a height of 1200 ft

TAF: GEML 200200Z 2003/2103 10006KT 9999 SCT020 TX26/2014Z TN17/2004Z TEMPO 2003/2011 SCT008 BKN012

Weather observations and forecasts of more than 4000 airports (METAR and TAF reports).

The available stations are represented by yellow and red dots on the map.

Hover mouse over dot to see the name of the station.

Then click to see weather observations and forecasts.

To change the map : click on the green buttons with a black cross to zoom in, on the green button with a dash to zoom out, or on the green arrows for adjacent maps.


METAR-TAF: